sensor_id;sensor_type;location;lat;lon;timestamp;pressure;altitude;pressure_sealevel;temperature
69007;BMP180;56061;51.748;19.620;2023-05-20T00:01:26;99966.20;;;13.00
69007;BMP180;56061;51.748;19.620;2023-05-20T00:03:53;99964.60;;;13.00
69007;BMP180;56061;51.748;19.620;2023-05-20T00:06:19;99960.60;;;13.00
69007;BMP180;56061;51.748;19.620;2023-05-20T00:08:46;99954.60;;;13.00
69007;BMP180;56061;51.748;19.620;2023-05-20T00:11:12;99959.40;;;13.00
69007;BMP180;56061;51.748;19.620;2023-05-20T00:13:39;99959.20;;;13.00
69007;BMP180;56061;51.748;19.620;2023-05-20T00:16:05;99957.20;;;13.00
69007;BMP180;56061;51.748;19.620;2023-05-20T00:18:32;99961.60;;;13.00
69007;BMP180;56061;51.748;19.620;2023-05-20T00:20:58;99958.20;;;13.00
69007;BMP180;56061;51.748;19.620;2023-05-20T00:23:25;99960.40;;;13.00
69007;BMP180;56061;51.748;19.620;2023-05-20T00:25:51;99955.20;;;13.00
69007;BMP180;56061;51.748;19.620;2023-05-20T00:28:18;99956.80;;;13.10
69007;BMP180;56061;51.748;19.620;2023-05-20T00:30:45;99959.60;;;13.10
69007;BMP180;56061;51.748;19.620;2023-05-20T00:33:11;99961.60;;;13.10
69007;BMP180;56061;51.748;19.620;2023-05-20T00:35:38;99958.40;;;13.10
69007;BMP180;56061;51.748;19.620;2023-05-20T00:38:05;99953.20;;;13.06
69007;BMP180;56061;51.748;19.620;2023-05-20T00:40:31;99954.00;;;13.10
69007;BMP180;56061;51.748;19.620;2023-05-20T00:42:58;99950.20;;;13.08
69007;BMP180;56061;51.748;19.620;2023-05-20T00:45:24;99955.60;;;13.10
69007;BMP180;56061;51.748;19.620;2023-05-20T00:47:51;99961.40;;;13.10
69007;BMP180;56061;51.748;19.620;2023-05-20T00:50:18;99956.80;;;13.08
69007;BMP180;56061;51.748;19.620;2023-05-20T00:52:44;99957.60;;;13.02
69007;BMP180;56061;51.748;19.620;2023-05-20T00:55:13;99955.40;;;13.00
69007;BMP180;56061;51.748;19.620;2023-05-20T00:57:40;99956.20;;;13.00
69007;BMP180;56061;51.748;19.620;2023-05-20T01:00:08;99953.20;;;13.00
69007;BMP180;56061;51.748;19.620;2023-05-20T01:02:35;99951.00;;;13.00
69007;BMP180;56061;51.748;19.620;2023-05-20T01:05:02;99953.20;;;13.00
69007;BMP180;56061;51.748;19.620;2023-05-20T01:07:29;99958.80;;;13.00
69007;BMP180;56061;51.748;19.620;2023-05-20T01:09:56;99957.60;;;13.00
69007;BMP180;56061;51.748;19.620;2023-05-20T01:12:27;99956.60;;;13.06
69007;BMP180;56061;51.748;19.620;2023-05-20T01:15:06;99955.00;;;13.10
69007;BMP180;56061;51.748;19.620;2023-05-20T01:17:38;99956.80;;;13.10
69007;BMP180;56061;51.748;19.620;2023-05-20T01:20:07;99954.80;;;13.10
69007;BMP180;56061;51.748;19.620;2023-05-20T01:22:46;99953.40;;;13.02
69007;BMP180;56061;51.748;19.620;2023-05-20T01:25:13;99951.60;;;13.06
69007;BMP180;56061;51.748;19.620;2023-05-20T01:27:39;99948.20;;;13.08
69007;BMP180;56061;51.748;19.620;2023-05-20T01:30:07;99950.80;;;13.10
69007;BMP180;56061;51.748;19.620;2023-05-20T01:32:38;99947.20;;;13.10
69007;BMP180;56061;51.748;19.620;2023-05-20T01:35:07;99947.40;;;13.10
69007;BMP180;56061;51.748;19.620;2023-05-20T01:37:38;99948.00;;;13.10
69007;BMP180;56061;51.748;19.620;2023-05-20T01:40:07;99950.20;;;13.10
69007;BMP180;56061;51.748;19.620;2023-05-20T01:42:34;99947.20;;;13.10
69007;BMP180;56061;51.748;19.620;2023-05-20T01:45:02;99943.00;;;13.10
69007;BMP180;56061;51.748;19.620;2023-05-20T01:47:29;99940.80;;;13.10
69007;BMP180;56061;51.748;19.620;2023-05-20T01:49:56;99945.20;;;13.10
69007;BMP180;56061;51.748;19.620;2023-05-20T01:52:23;99938.20;;;13.10
69007;BMP180;56061;51.748;19.620;2023-05-20T01:54:49;99937.60;;;13.10
69007;BMP180;56061;51.748;19.620;2023-05-20T01:57:22;99938.20;;;13.10
69007;BMP180;56061;51.748;19.620;2023-05-20T01:59:49;99931.00;;;13.14
69007;BMP180;56061;51.748;19.620;2023-05-20T02:02:16;99931.20;;;13.20
69007;BMP180;56061;51.748;19.620;2023-05-20T02:04:49;99927.40;;;13.20
69007;BMP180;56061;51.748;19.620;2023-05-20T02:07:17;99935.00;;;13.20
69007;BMP180;56061;51.748;19.620;2023-05-20T02:09:45;99932.20;;;13.20
69007;BMP180;56061;51.748;19.620;2023-05-20T02:12:12;99929.20;;;13.20
69007;BMP180;56061;51.748;19.620;2023-05-20T02:14:46;99925.20;;;13.20
69007;BMP180;56061;51.748;19.620;2023-05-20T02:17:15;99926.00;;;13.20
69007;BMP180;56061;51.748;19.620;2023-05-20T02:19:43;99926.60;;;13.20
69007;BMP180;56061;51.748;19.620;2023-05-20T02:22:11;99924.80;;;13.20
69007;BMP180;56061;51.748;19.620;2023-05-20T02:24:37;99916.20;;;13.20
69007;BMP180;56061;51.748;19.620;2023-05-20T02:27:04;99914.80;;;13.20
69007;BMP180;56061;51.748;19.620;2023-05-20T02:29:31;99912.80;;;13.10
69007;BMP180;56061;51.748;19.620;2023-05-20T02:31:58;99912.80;;;13.10
69007;BMP180;56061;51.748;19.620;2023-05-20T02:34:26;99912.40;;;13.10
69007;BMP180;56061;51.748;19.620;2023-05-20T02:36:53;99914.60;;;13.10
69007;BMP180;56061;51.748;19.620;2023-05-20T02:39:19;99919.60;;;13.10
69007;BMP180;56061;51.748;19.620;2023-05-20T02:41:46;99918.80;;;13.10
69007;BMP180;56061;51.748;19.620;2023-05-20T02:44:13;99923.80;;;13.10
69007;BMP180;56061;51.748;19.620;2023-05-20T02:46:40;99923.40;;;13.10
69007;BMP180;56061;51.748;19.620;2023-05-20T02:49:06;99923.40;;;13.14
69007;BMP180;56061;51.748;19.620;2023-05-20T02:51:33;99927.80;;;13.18
69007;BMP180;56061;51.748;19.620;2023-05-20T02:53:59;99925.60;;;13.20
69007;BMP180;56061;51.748;19.620;2023-05-20T02:56:26;99923.40;;;13.16
69007;BMP180;56061;51.748;19.620;2023-05-20T02:58:53;99930.20;;;13.20
69007;BMP180;56061;51.748;19.620;2023-05-20T03:01:20;99930.00;;;13.20
69007;BMP180;56061;51.748;19.620;2023-05-20T03:03:47;99929.60;;;13.20
69007;BMP180;56061;51.748;19.620;2023-05-20T03:06:13;99928.80;;;13.20
69007;BMP180;56061;51.748;19.620;2023-05-20T03:08:40;99932.80;;;13.20
69007;BMP180;56061;51.748;19.620;2023-05-20T03:11:08;99935.40;;;13.20
69007;BMP180;56061;51.748;19.620;2023-05-20T03:13:34;99931.00;;;13.20
69007;BMP180;56061;51.748;19.620;2023-05-20T03:16:01;99929.00;;;13.20
69007;BMP180;56061;51.748;19.620;2023-05-20T03:18:27;99925.60;;;13.20
69007;BMP180;56061;51.748;19.620;2023-05-20T03:20:54;99921.60;;;13.20
69007;BMP180;56061;51.748;19.620;2023-05-20T03:23:21;99924.60;;;13.20
69007;BMP180;56061;51.748;19.620;2023-05-20T03:25:47;99928.40;;;13.20
69007;BMP180;56061;51.748;19.620;2023-05-20T03:28:14;99931.00;;;13.20
69007;BMP180;56061;51.748;19.620;2023-05-20T03:30:41;99935.20;;;13.30
69007;BMP180;56061;51.748;19.620;2023-05-20T03:33:07;99937.40;;;13.30
69007;BMP180;56061;51.748;19.620;2023-05-20T03:35:34;99941.80;;;13.28
69007;BMP180;56061;51.748;19.620;2023-05-20T03:38:01;99942.00;;;13.20
69007;BMP180;56061;51.748;19.620;2023-05-20T03:40:27;99945.20;;;13.20
69007;BMP180;56061;51.748;19.620;2023-05-20T03:42:54;99944.00;;;13.20
69007;BMP180;56061;51.748;19.620;2023-05-20T03:45:20;99942.20;;;13.22
69007;BMP180;56061;51.748;19.620;2023-05-20T03:47:47;99946.80;;;13.28
69007;BMP180;56061;51.748;19.620;2023-05-20T03:50:13;99944.00;;;13.30
69007;BMP180;56061;51.748;19.620;2023-05-20T03:52:40;99948.40;;;13.30
69007;BMP180;56061;51.748;19.620;2023-05-20T03:55:07;99945.00;;;13.30
69007;BMP180;56061;51.748;19.620;2023-05-20T03:57:34;99950.20;;;13.30
69007;BMP180;56061;51.748;19.620;2023-05-20T04:00:03;99949.80;;;13.30
69007;BMP180;56061;51.748;19.620;2023-05-20T04:02:35;99952.80;;;13.30
69007;BMP180;56061;51.748;19.620;2023-05-20T04:05:02;99954.60;;;13.30
69007;BMP180;56061;51.748;19.620;2023-05-20T04:07:29;99958.40;;;13.30
69007;BMP180;56061;51.748;19.620;2023-05-20T04:09:55;99961.40;;;13.30
69007;BMP180;56061;51.748;19.620;2023-05-20T04:12:22;99957.20;;;13.40
69007;BMP180;56061;51.748;19.620;2023-05-20T04:14:48;99953.60;;;13.44
69007;BMP180;56061;51.748;19.620;2023-05-20T04:17:15;99954.40;;;13.50
69007;BMP180;56061;51.748;19.620;2023-05-20T04:19:42;99955.00;;;13.50
69007;BMP180;56061;51.748;19.620;2023-05-20T04:22:09;99951.20;;;13.50
69007;BMP180;56061;51.748;19.620;2023-05-20T04:24:36;99952.40;;;13.50
69007;BMP180;56061;51.748;19.620;2023-05-20T04:27:03;99950.20;;;13.60
69007;BMP180;56061;51.748;19.620;2023-05-20T04:29:31;99950.00;;;13.60
69007;BMP180;56061;51.748;19.620;2023-05-20T04:31:59;99954.40;;;13.70
69007;BMP180;56061;51.748;19.620;2023-05-20T04:34:29;99957.00;;;13.72
69007;BMP180;56061;51.748;19.620;2023-05-20T04:36:55;99954.80;;;13.80
69007;BMP180;56061;51.748;19.620;2023-05-20T04:39:23;99948.80;;;13.84
69007;BMP180;56061;51.748;19.620;2023-05-20T04:41:49;99951.20;;;13.90
69007;BMP180;56061;51.748;19.620;2023-05-20T04:44:16;99949.80;;;13.90
69007;BMP180;56061;51.748;19.620;2023-05-20T04:46:42;99954.60;;;13.90
69007;BMP180;56061;51.748;19.620;2023-05-20T04:49:09;99959.40;;;13.98
69007;BMP180;56061;51.748;19.620;2023-05-20T04:51:36;99960.80;;;14.00
69007;BMP180;56061;51.748;19.620;2023-05-20T04:54:03;99959.20;;;14.00
69007;BMP180;56061;51.748;19.620;2023-05-20T04:56:29;99950.80;;;14.00
69007;BMP180;56061;51.748;19.620;2023-05-20T04:58:55;99955.40;;;14.10
69007;BMP180;56061;51.748;19.620;2023-05-20T05:01:22;99958.40;;;14.14
69007;BMP180;56061;51.748;19.620;2023-05-20T05:03:48;99957.80;;;14.20
69007;BMP180;56061;51.748;19.620;2023-05-20T05:06:15;99958.00;;;14.30
69007;BMP180;56061;51.748;19.620;2023-05-20T05:08:41;99959.00;;;14.40
69007;BMP180;56061;51.748;19.620;2023-05-20T05:11:08;99961.60;;;14.40
69007;BMP180;56061;51.748;19.620;2023-05-20T05:13:34;99959.00;;;14.40
69007;BMP180;56061;51.748;19.620;2023-05-20T05:16:01;99964.80;;;14.50
69007;BMP180;56061;51.748;19.620;2023-05-20T05:18:28;99956.80;;;14.50
69007;BMP180;56061;51.748;19.620;2023-05-20T05:21:03;99954.40;;;14.60
69007;BMP180;56061;51.748;19.620;2023-05-20T05:23:30;99952.80;;;14.70
69007;BMP180;56061;51.748;19.620;2023-05-20T05:25:57;99955.60;;;14.70
69007;BMP180;56061;51.748;19.620;2023-05-20T05:28:24;99957.80;;;14.70
69007;BMP180;56061;51.748;19.620;2023-05-20T05:30:53;99962.80;;;14.80
69007;BMP180;56061;51.748;19.620;2023-05-20T05:33:21;99966.00;;;14.80
69007;BMP180;56061;51.748;19.620;2023-05-20T05:35:48;99964.60;;;14.90
69007;BMP180;56061;51.748;19.620;2023-05-20T05:38:15;99965.40;;;14.98
69007;BMP180;56061;51.748;19.620;2023-05-20T05:40:42;99965.60;;;15.08
69007;BMP180;56061;51.748;19.620;2023-05-20T05:43:08;99966.80;;;15.10
69007;BMP180;56061;51.748;19.620;2023-05-20T05:45:35;99969.80;;;15.20
69007;BMP180;56061;51.748;19.620;2023-05-20T05:48:01;99967.40;;;15.26
69007;BMP180;56061;51.748;19.620;2023-05-20T05:50:28;99969.60;;;15.32
69007;BMP180;56061;51.748;19.620;2023-05-20T05:52:54;99971.80;;;15.40
69007;BMP180;56061;51.748;19.620;2023-05-20T05:55:21;99972.00;;;15.50
69007;BMP180;56061;51.748;19.620;2023-05-20T05:57:48;99973.00;;;15.60
69007;BMP180;56061;51.748;19.620;2023-05-20T06:00:15;99974.00;;;15.68
69007;BMP180;56061;51.748;19.620;2023-05-20T06:02:42;99973.60;;;15.70
69007;BMP180;56061;51.748;19.620;2023-05-20T06:05:10;99973.60;;;15.70
69007;BMP180;56061;51.748;19.620;2023-05-20T06:07:36;99971.80;;;15.70
69007;BMP180;56061;51.748;19.620;2023-05-20T06:10:03;99977.20;;;15.70
69007;BMP180;56061;51.748;19.620;2023-05-20T06:12:30;99974.20;;;15.70
69007;BMP180;56061;51.748;19.620;2023-05-20T06:14:56;99977.60;;;15.80
69007;BMP180;56061;51.748;19.620;2023-05-20T06:17:22;99974.60;;;15.90
69007;BMP180;56061;51.748;19.620;2023-05-20T06:19:49;99978.20;;;16.00
69007;BMP180;56061;51.748;19.620;2023-05-20T06:22:15;99986.60;;;16.00
69007;BMP180;56061;51.748;19.620;2023-05-20T06:24:42;99988.60;;;16.10
69007;BMP180;56061;51.748;19.620;2023-05-20T06:27:08;99985.40;;;16.20
69007;BMP180;56061;51.748;19.620;2023-05-20T06:29:35;99980.00;;;16.20
69007;BMP180;56061;51.748;19.620;2023-05-20T06:32:01;99974.40;;;16.20
69007;BMP180;56061;51.748;19.620;2023-05-20T06:34:28;99970.40;;;16.30
69007;BMP180;56061;51.748;19.620;2023-05-20T06:36:54;99968.00;;;16.36
69007;BMP180;56061;51.748;19.620;2023-05-20T06:39:21;99966.80;;;16.50
69007;BMP180;56061;51.748;19.620;2023-05-20T06:41:47;99966.40;;;16.60
69007;BMP180;56061;51.748;19.620;2023-05-20T06:44:14;99959.40;;;16.70
69007;BMP180;56061;51.748;19.620;2023-05-20T06:46:41;99956.20;;;16.82
69007;BMP180;56061;51.748;19.620;2023-05-20T06:49:07;99957.60;;;17.00
69007;BMP180;56061;51.748;19.620;2023-05-20T06:51:34;99959.00;;;17.10
69007;BMP180;56061;51.748;19.620;2023-05-20T06:54:01;99953.20;;;17.20
69007;BMP180;56061;51.748;19.620;2023-05-20T06:56:27;99958.00;;;17.30
69007;BMP180;56061;51.748;19.620;2023-05-20T06:58:54;99954.80;;;17.36
69007;BMP180;56061;51.748;19.620;2023-05-20T07:01:20;99946.80;;;17.44
69007;BMP180;56061;51.748;19.620;2023-05-20T07:03:47;99942.40;;;17.70
69007;BMP180;56061;51.748;19.620;2023-05-20T07:06:13;99942.40;;;17.90
69007;BMP180;56061;51.748;19.620;2023-05-20T07:08:40;99942.80;;;17.98
69007;BMP180;56061;51.748;19.620;2023-05-20T07:11:06;99941.80;;;18.00
69007;BMP180;56061;51.748;19.620;2023-05-20T07:13:33;99945.00;;;18.20
69007;BMP180;56061;51.748;19.620;2023-05-20T07:16:00;99946.20;;;18.30
69007;BMP180;56061;51.748;19.620;2023-05-20T07:18:27;99946.20;;;18.40
69007;BMP180;56061;51.748;19.620;2023-05-20T07:20:54;99946.60;;;18.50
69007;BMP180;56061;51.748;19.620;2023-05-20T07:23:22;99946.80;;;18.60
69007;BMP180;56061;51.748;19.620;2023-05-20T07:25:49;99938.60;;;18.70
69007;BMP180;56061;51.748;19.620;2023-05-20T07:28:18;99935.80;;;18.90
69007;BMP180;56061;51.748;19.620;2023-05-20T07:30:46;99931.60;;;19.02
69007;BMP180;56061;51.748;19.620;2023-05-20T07:33:16;99930.80;;;19.20
69007;BMP180;56061;51.748;19.620;2023-05-20T07:35:44;99928.80;;;19.30
69007;BMP180;56061;51.748;19.620;2023-05-20T07:38:11;99931.20;;;19.50
69007;BMP180;56061;51.748;19.620;2023-05-20T07:40:41;99932.40;;;19.60
69007;BMP180;56061;51.748;19.620;2023-05-20T07:43:08;99932.00;;;19.60
69007;BMP180;56061;51.748;19.620;2023-05-20T07:45:35;99934.00;;;19.70
69007;BMP180;56061;51.748;19.620;2023-05-20T07:48:05;99934.40;;;19.80
69007;BMP180;56061;51.748;19.620;2023-05-20T07:50:34;99937.40;;;19.80
69007;BMP180;56061;51.748;19.620;2023-05-20T07:53:00;99935.80;;;19.90
69007;BMP180;56061;51.748;19.620;2023-05-20T07:55:27;99931.80;;;20.00
69007;BMP180;56061;51.748;19.620;2023-05-20T07:57:54;99932.40;;;20.10
69007;BMP180;56061;51.748;19.620;2023-05-20T08:00:20;99927.20;;;20.20
69007;BMP180;56061;51.748;19.620;2023-05-20T08:02:47;99927.40;;;20.38
69007;BMP180;56061;51.748;19.620;2023-05-20T08:05:14;99926.40;;;20.50
69007;BMP180;56061;51.748;19.620;2023-05-20T08:07:40;99924.80;;;20.54
69007;BMP180;56061;51.748;19.620;2023-05-20T08:10:07;99916.60;;;20.60
69007;BMP180;56061;51.748;19.620;2023-05-20T08:12:34;99915.00;;;20.50
69007;BMP180;56061;51.748;19.620;2023-05-20T08:15:01;99912.60;;;20.40
69007;BMP180;56061;51.748;19.620;2023-05-20T08:17:27;99910.20;;;20.30
69007;BMP180;56061;51.748;19.620;2023-05-20T08:19:54;99911.80;;;20.20
69007;BMP180;56061;51.748;19.620;2023-05-20T08:22:20;99911.60;;;20.10
69007;BMP180;56061;51.748;19.620;2023-05-20T08:24:47;99909.00;;;20.20
69007;BMP180;56061;51.748;19.620;2023-05-20T08:27:13;99907.00;;;20.20
69007;BMP180;56061;51.748;19.620;2023-05-20T08:29:40;99901.80;;;20.10
69007;BMP180;56061;51.748;19.620;2023-05-20T08:32:06;99904.00;;;20.10
69007;BMP180;56061;51.748;19.620;2023-05-20T08:34:33;99904.40;;;20.10
69007;BMP180;56061;51.748;19.620;2023-05-20T08:37:00;99900.40;;;20.14
69007;BMP180;56061;51.748;19.620;2023-05-20T08:39:27;99902.80;;;20.30
69007;BMP180;56061;51.748;19.620;2023-05-20T08:41:53;99903.00;;;20.40
69007;BMP180;56061;51.748;19.620;2023-05-20T08:44:20;99901.20;;;20.42
69007;BMP180;56061;51.748;19.620;2023-05-20T08:46:49;99896.60;;;20.60
69007;BMP180;56061;51.748;19.620;2023-05-20T08:49:16;99896.80;;;20.70
69007;BMP180;56061;51.748;19.620;2023-05-20T08:51:43;99895.40;;;20.80
69007;BMP180;56061;51.748;19.620;2023-05-20T08:54:13;99897.40;;;21.00
69007;BMP180;56061;51.748;19.620;2023-05-20T08:56:43;99898.20;;;21.20
69007;BMP180;56061;51.748;19.620;2023-05-20T08:59:09;99900.60;;;21.40
69007;BMP180;56061;51.748;19.620;2023-05-20T09:01:41;99897.60;;;21.40
69007;BMP180;56061;51.748;19.620;2023-05-20T09:04:08;99895.40;;;21.40
69007;BMP180;56061;51.748;19.620;2023-05-20T09:06:43;99894.60;;;21.44
69007;BMP180;56061;51.748;19.620;2023-05-20T09:09:11;99893.00;;;21.50
69007;BMP180;56061;51.748;19.620;2023-05-20T09:11:40;99895.40;;;21.50
69007;BMP180;56061;51.748;19.620;2023-05-20T09:14:07;99894.80;;;21.50
69007;BMP180;56061;51.748;19.620;2023-05-20T09:16:34;99893.80;;;21.60
69007;BMP180;56061;51.748;19.620;2023-05-20T09:19:01;99890.20;;;21.60
69007;BMP180;56061;51.748;19.620;2023-05-20T09:21:31;99892.20;;;21.60
69007;BMP180;56061;51.748;19.620;2023-05-20T09:24:01;99888.80;;;21.60
69007;BMP180;56061;51.748;19.620;2023-05-20T09:26:28;99889.00;;;21.70
69007;BMP180;56061;51.748;19.620;2023-05-20T09:28:56;99888.40;;;21.70
69007;BMP180;56061;51.748;19.620;2023-05-20T09:31:33;99885.80;;;21.70
69007;BMP180;56061;51.748;19.620;2023-05-20T09:34:01;99883.60;;;21.80
69007;BMP180;56061;51.748;19.620;2023-05-20T09:36:38;99885.40;;;21.90
69007;BMP180;56061;51.748;19.620;2023-05-20T09:39:10;99884.20;;;22.00
69007;BMP180;56061;51.748;19.620;2023-05-20T09:41:51;99885.80;;;22.10
69007;BMP180;56061;51.748;19.620;2023-05-20T09:44:21;99884.00;;;22.10
69007;BMP180;56061;51.748;19.620;2023-05-20T09:46:49;99885.20;;;22.10
69007;BMP180;56061;51.748;19.620;2023-05-20T09:49:16;99886.60;;;22.08
69007;BMP180;56061;51.748;19.620;2023-05-20T09:51:44;99882.60;;;22.00
69007;BMP180;56061;51.748;19.620;2023-05-20T09:54:12;99879.80;;;21.94
69007;BMP180;56061;51.748;19.620;2023-05-20T09:56:40;99879.80;;;21.90
69007;BMP180;56061;51.748;19.620;2023-05-20T09:59:09;99879.20;;;21.90
69007;BMP180;56061;51.748;19.620;2023-05-20T10:01:36;99877.80;;;21.96
69007;BMP180;56061;51.748;19.620;2023-05-20T10:04:05;99876.40;;;22.10
69007;BMP180;56061;51.748;19.620;2023-05-20T10:06:54;99870.60;;;22.24
69007;BMP180;56061;51.748;19.620;2023-05-20T10:12:35;99866.60;;;22.68
69007;BMP180;56061;51.748;19.620;2023-05-20T10:15:23;99864.80;;;22.90
69007;BMP180;56061;51.748;19.620;2023-05-20T10:18:22;99865.20;;;23.10
69007;BMP180;56061;51.748;19.620;2023-05-20T10:20:51;99862.40;;;23.12
69007;BMP180;56061;51.748;19.620;2023-05-20T10:23:28;99863.00;;;23.30
69007;BMP180;56061;51.748;19.620;2023-05-20T10:25:57;99869.60;;;23.30
69007;BMP180;56061;51.748;19.620;2023-05-20T10:28:42;99863.20;;;23.34
69007;BMP180;56061;51.748;19.620;2023-05-20T10:31:21;99861.80;;;23.30
69007;BMP180;56061;51.748;19.620;2023-05-20T10:33:52;99856.20;;;23.40
69007;BMP180;56061;51.748;19.620;2023-05-20T10:36:27;99855.00;;;23.52
69007;BMP180;56061;51.748;19.620;2023-05-20T10:38:58;99855.60;;;23.70
69007;BMP180;56061;51.748;19.620;2023-05-20T10:41:29;99844.00;;;23.80
69007;BMP180;56061;51.748;19.620;2023-05-20T10:44:06;99849.60;;;23.90
69007;BMP180;56061;51.748;19.620;2023-05-20T10:46:34;99844.20;;;23.86
69007;BMP180;56061;51.748;19.620;2023-05-20T10:49:21;99842.80;;;23.90
69007;BMP180;56061;51.748;19.620;2023-05-20T10:51:52;99841.00;;;23.90
69007;BMP180;56061;51.748;19.620;2023-05-20T10:54:21;99837.80;;;24.10
69007;BMP180;56061;51.748;19.620;2023-05-20T10:56:52;99841.80;;;24.30
69007;BMP180;56061;51.748;19.620;2023-05-20T10:59:20;99836.40;;;24.20
69007;BMP180;56061;51.748;19.620;2023-05-20T11:01:49;99835.00;;;24.10
69007;BMP180;56061;51.748;19.620;2023-05-20T11:04:16;99827.20;;;24.10
69007;BMP180;56061;51.748;19.620;2023-05-20T11:06:51;99830.40;;;24.10
69007;BMP180;56061;51.748;19.620;2023-05-20T11:09:21;99831.40;;;24.10
69007;BMP180;56061;51.748;19.620;2023-05-20T11:11:52;99832.60;;;24.00
69007;BMP180;56061;51.748;19.620;2023-05-20T11:14:20;99826.20;;;24.00
69007;BMP180;56061;51.748;19.620;2023-05-20T11:16:51;99820.40;;;24.10
69007;BMP180;56061;51.748;19.620;2023-05-20T11:19:19;99811.20;;;24.20
69007;BMP180;56061;51.748;19.620;2023-05-20T11:21:47;99813.80;;;24.40
69007;BMP180;56061;51.748;19.620;2023-05-20T11:24:23;99814.60;;;24.50
69007;BMP180;56061;51.748;19.620;2023-05-20T11:26:55;99817.80;;;24.50
69007;BMP180;56061;51.748;19.620;2023-05-20T11:29:25;99815.40;;;24.40
69007;BMP180;56061;51.748;19.620;2023-05-20T11:31:52;99808.00;;;24.20
69007;BMP180;56061;51.748;19.620;2023-05-20T11:34:20;99807.20;;;24.20
69007;BMP180;56061;51.748;19.620;2023-05-20T11:36:57;99802.20;;;24.20
69007;BMP180;56061;51.748;19.620;2023-05-20T11:39:29;99801.40;;;24.30
69007;BMP180;56061;51.748;19.620;2023-05-20T11:41:57;99806.60;;;24.60
69007;BMP180;56061;51.748;19.620;2023-05-20T11:44:24;99803.60;;;24.98
69007;BMP180;56061;51.748;19.620;2023-05-20T11:46:59;99800.80;;;25.24
69007;BMP180;56061;51.748;19.620;2023-05-20T11:49:27;99802.80;;;25.40
69007;BMP180;56061;51.748;19.620;2023-05-20T11:51:55;99807.60;;;25.56
69007;BMP180;56061;51.748;19.620;2023-05-20T11:54:24;99803.60;;;25.70
69007;BMP180;56061;51.748;19.620;2023-05-20T11:56:53;99800.20;;;25.80
69007;BMP180;56061;51.748;19.620;2023-05-20T11:59:23;99795.60;;;26.00
69007;BMP180;56061;51.748;19.620;2023-05-20T12:01:49;99791.80;;;26.10
69007;BMP180;56061;51.748;19.620;2023-05-20T12:04:16;99789.80;;;26.00
69007;BMP180;56061;51.748;19.620;2023-05-20T12:06:43;99784.00;;;26.04
69007;BMP180;56061;51.748;19.620;2023-05-20T12:09:11;99790.20;;;26.20
69007;BMP180;56061;51.748;19.620;2023-05-20T12:11:39;99786.20;;;26.10
69007;BMP180;56061;51.748;19.620;2023-05-20T12:14:07;99787.80;;;26.20
69007;BMP180;56061;51.748;19.620;2023-05-20T12:16:35;99790.20;;;26.24
69007;BMP180;56061;51.748;19.620;2023-05-20T12:19:02;99783.80;;;26.00
69007;BMP180;56061;51.748;19.620;2023-05-20T12:21:30;99780.60;;;25.80
69007;BMP180;56061;51.748;19.620;2023-05-20T12:24:00;99783.00;;;25.60
69007;BMP180;56061;51.748;19.620;2023-05-20T12:26:28;99778.40;;;25.40
69007;BMP180;56061;51.748;19.620;2023-05-20T12:28:55;99772.00;;;25.20
69007;BMP180;56061;51.748;19.620;2023-05-20T12:31:23;99774.80;;;25.00
69007;BMP180;56061;51.748;19.620;2023-05-20T12:33:49;99781.40;;;24.90
69007;BMP180;56061;51.748;19.620;2023-05-20T12:36:16;99773.60;;;24.90
69007;BMP180;56061;51.748;19.620;2023-05-20T12:38:42;99769.80;;;24.90
69007;BMP180;56061;51.748;19.620;2023-05-20T12:41:09;99772.60;;;24.90
69007;BMP180;56061;51.748;19.620;2023-05-20T12:43:35;99768.20;;;25.00
69007;BMP180;56061;51.748;19.620;2023-05-20T12:46:03;99764.80;;;25.20
69007;BMP180;56061;51.748;19.620;2023-05-20T12:48:30;99765.80;;;25.40
69007;BMP180;56061;51.748;19.620;2023-05-20T12:50:57;99761.60;;;25.40
69007;BMP180;56061;51.748;19.620;2023-05-20T12:53:24;99755.20;;;25.40
69007;BMP180;56061;51.748;19.620;2023-05-20T12:55:51;99749.60;;;25.52
69007;BMP180;56061;51.748;19.620;2023-05-20T12:58:17;99746.80;;;25.80
69007;BMP180;56061;51.748;19.620;2023-05-20T13:00:44;99744.00;;;26.20
69007;BMP180;56061;51.748;19.620;2023-05-20T13:03:10;99746.00;;;26.50
69007;BMP180;56061;51.748;19.620;2023-05-20T13:05:37;99743.60;;;26.70
69007;BMP180;56061;51.748;19.620;2023-05-20T13:08:04;99742.40;;;26.50
69007;BMP180;56061;51.748;19.620;2023-05-20T13:10:33;99744.20;;;26.20
69007;BMP180;56061;51.748;19.620;2023-05-20T13:13:00;99748.60;;;25.92
69007;BMP180;56061;51.748;19.620;2023-05-20T13:15:27;99750.00;;;25.78
69007;BMP180;56061;51.748;19.620;2023-05-20T13:17:53;99746.00;;;25.60
69007;BMP180;56061;51.748;19.620;2023-05-20T13:20:20;99736.00;;;25.50
69007;BMP180;56061;51.748;19.620;2023-05-20T13:22:46;99730.80;;;25.50
69007;BMP180;56061;51.748;19.620;2023-05-20T13:25:13;99727.00;;;25.60
69007;BMP180;56061;51.748;19.620;2023-05-20T13:27:41;99725.80;;;25.84
69007;BMP180;56061;51.748;19.620;2023-05-20T13:30:08;99720.20;;;26.10
69007;BMP180;56061;51.748;19.620;2023-05-20T13:32:34;99725.20;;;26.20
69007;BMP180;56061;51.748;19.620;2023-05-20T13:35:01;99723.80;;;26.10
69007;BMP180;56061;51.748;19.620;2023-05-20T13:37:27;99728.80;;;26.00
69007;BMP180;56061;51.748;19.620;2023-05-20T13:39:55;99721.60;;;26.00
69007;BMP180;56061;51.748;19.620;2023-05-20T13:42:22;99715.60;;;26.10
69007;BMP180;56061;51.748;19.620;2023-05-20T13:44:49;99709.80;;;26.30
69007;BMP180;56061;51.748;19.620;2023-05-20T13:47:15;99706.40;;;26.68
69007;BMP180;56061;51.748;19.620;2023-05-20T13:49:42;99709.00;;;27.00
69007;BMP180;56061;51.748;19.620;2023-05-20T13:52:08;99706.00;;;27.00
69007;BMP180;56061;51.748;19.620;2023-05-20T13:54:35;99708.20;;;27.10
69007;BMP180;56061;51.748;19.620;2023-05-20T13:57:03;99706.80;;;27.20
69007;BMP180;56061;51.748;19.620;2023-05-20T13:59:33;99708.40;;;27.20
69007;BMP180;56061;51.748;19.620;2023-05-20T14:02:00;99706.60;;;27.10
69007;BMP180;56061;51.748;19.620;2023-05-20T14:04:27;99703.20;;;27.10